Time;durP1;ratioP1;P1;durP2;ratioP2;P2;SDS_P1;SDS_P2;PMS_P1;PMS_P2;Temp;Humidity;BMP_temperature;BMP_pressure;BME280_temperature;BME280_humidity;BME280_pressure;Samples;Min_cycle;Max_cycle;Signal;HPM_P1;HPM_P2
2021/07/17 00:01:27;;;;;;;6.80;2.65;;;18.60;99.90;;;;;;4969150;29;20035;-95
2021/07/17 00:03:54;;;;;;;3.92;2.30;;;18.50;99.90;;;;;;4974223;28;20030;-96
2021/07/17 00:06:27;;;;;;;5.90;2.30;;;18.40;99.90;;;;;;4973518;29;20058;-96
2021/07/17 00:08:53;;;;;;;4.30;2.30;;;18.40;99.90;;;;;;4975342;29;20034;-95
2021/07/17 00:11:23;;;;;;;5.07;2.40;;;18.30;99.90;;;;;;4957700;29;20115;-95
2021/07/17 00:13:52;;;;;;;3.70;2.13;;;18.30;99.90;;;;;;4973806;29;20047;-96
2021/07/17 00:16:26;;;;;;;3.97;2.30;;;18.30;99.90;;;;;;4956381;29;20039;-95
2021/07/17 00:18:56;;;;;;;4.50;1.92;;;18.30;99.90;;;;;;4975067;28;20043;-96
2021/07/17 00:21:29;;;;;;;4.10;2.28;;;18.20;99.90;;;;;;4972824;28;20007;-95
2021/07/17 00:23:55;;;;;;;5.13;2.80;;;18.20;99.90;;;;;;4979102;28;20026;-96
2021/07/17 00:26:21;;;;;;;8.73;2.63;;;18.20;99.90;;;;;;4979034;28;20047;-95
2021/07/17 00:29:08;;;;;;;5.05;2.03;;;18.00;99.90;;;;;;4979239;28;20011;-95
2021/07/17 00:31:36;;;;;;;2.72;2.13;;;17.90;99.90;;;;;;4979116;28;20110;-96
2021/07/17 00:34:03;;;;;;;8.02;2.53;;;17.90;99.90;;;;;;4978823;28;20016;-96
2021/07/17 00:36:29;;;;;;;5.55;3.20;;;17.80;99.90;;;;;;4959720;28;20003;-95
2021/07/17 00:38:59;;;;;;;5.80;2.28;;;17.70;99.90;;;;;;4979963;28;20015;-96
2021/07/17 00:41:25;;;;;;;8.15;2.47;;;17.70;99.90;;;;;;4961086;29;20038;-96
2021/07/17 00:43:55;;;;;;;5.72;2.17;;;17.60;99.90;;;;;;4959861;29;20027;-96
2021/07/17 00:46:31;;;;;;;6.20;2.13;;;17.60;99.90;;;;;;4961323;29;20050;-96
2021/07/17 00:49:00;;;;;;;5.65;2.28;;;17.60;99.90;;;;;;4961202;29;20087;-95
2021/07/17 00:51:26;;;;;;;3.90;2.05;;;17.60;99.90;;;;;;4963289;28;20026;-95
2021/07/17 00:53:53;;;;;;;4.50;2.28;;;17.60;99.90;;;;;;4955184;29;20046;-95
2021/07/17 00:56:20;;;;;;;6.35;2.40;;;17.60;99.90;;;;;;4952476;29;20029;-96
2021/07/17 00:58:49;;;;;;;5.13;2.10;;;17.50;99.90;;;;;;4933832;29;20035;-96
2021/07/17 01:01:16;;;;;;;4.75;2.47;;;17.50;99.90;;;;;;4952066;29;20027;-96
2021/07/17 01:03:43;;;;;;;3.33;1.92;;;17.50;99.90;;;;;;4950451;29;20027;-96
2021/07/17 01:06:09;;;;;;;2.55;2.30;;;17.50;99.90;;;;;;4951768;29;20050;-96
2021/07/17 01:08:36;;;;;;;6.82;2.13;;;17.50;99.90;;;;;;4950182;29;20050;-95
2021/07/17 01:11:05;;;;;;;4.40;2.33;;;17.50;99.90;;;;;;4956748;29;20026;-95
2021/07/17 01:13:39;;;;;;;4.47;2.30;;;17.40;99.90;;;;;;4960529;29;20087;-96
2021/07/17 01:16:05;;;;;;;4.88;2.08;;;17.40;99.90;;;;;;4960019;29;20270;-95
2021/07/17 01:18:34;;;;;;;5.68;2.40;;;17.30;99.90;;;;;;4959309;29;20032;-96
2021/07/17 01:21:04;;;;;;;4.97;2.72;;;17.30;99.90;;;;;;4961058;29;20043;-95
2021/07/17 01:23:34;;;;;;;5.80;2.63;;;17.20;99.90;;;;;;4960771;29;20047;-96
2021/07/17 01:26:08;;;;;;;4.25;2.55;;;17.20;99.90;;;;;;4960228;29;20031;-96
2021/07/17 01:28:37;;;;;;;4.40;2.65;;;17.10;99.90;;;;;;4960259;29;20114;-95
2021/07/17 01:31:12;;;;;;;4.57;2.20;;;17.10;99.90;;;;;;4943628;29;20058;-96
2021/07/17 01:33:41;;;;;;;3.83;2.40;;;17.00;99.90;;;;;;4955701;29;20091;-96
2021/07/17 01:36:12;;;;;;;4.07;2.40;;;17.00;99.90;;;;;;4974072;29;20051;-96
2021/07/17 01:38:45;;;;;;;5.18;2.38;;;16.90;99.90;;;;;;4943838;29;20270;-96
2021/07/17 01:41:14;;;;;;;6.03;2.70;;;16.90;99.90;;;;;;4957909;29;20130;-95
2021/07/17 01:43:43;;;;;;;7.95;2.50;;;16.90;99.90;;;;;;4958500;29;20094;-96
2021/07/17 01:46:17;;;;;;;6.60;2.45;;;16.80;99.90;;;;;;4958231;29;20107;-95
2021/07/17 01:48:54;;;;;;;5.72;2.40;;;16.80;99.90;;;;;;4959015;29;20038;-95
2021/07/17 01:51:23;;;;;;;2.88;2.05;;;16.80;99.90;;;;;;4958400;29;20039;-95
2021/07/17 01:54:00;;;;;;;5.40;3.15;;;16.70;99.90;;;;;;4963530;29;20091;-96
2021/07/17 01:56:29;;;;;;;5.07;2.85;;;16.80;99.90;;;;;;4948513;29;20011;-96
2021/07/17 01:59:21;;;;;;;4.80;2.40;;;16.70;99.90;;;;;;4965846;29;20031;-96
2021/07/17 02:02:11;;;;;;;6.30;2.67;;;16.70;99.90;;;;;;4980430;29;20028;-96
2021/07/17 02:04:43;;;;;;;5.95;3.05;;;16.70;99.90;;;;;;4964199;29;20083;-95
2021/07/17 02:07:13;;;;;;;6.80;2.50;;;16.70;99.90;;;;;;4955945;29;20043;-96
2021/07/17 02:10:03;;;;;;;4.72;2.65;;;16.70;99.90;;;;;;4961900;29;20058;-95
2021/07/17 02:12:31;;;;;;;3.80;2.57;;;16.70;99.90;;;;;;4959834;29;20019;-96
2021/07/17 02:14:59;;;;;;;4.13;2.20;;;16.60;99.90;;;;;;4961753;29;20281;-95
2021/07/17 02:17:46;;;;;;;3.78;2.00;;;16.60;99.90;;;;;;4962741;29;20031;-96
2021/07/17 02:20:42;;;;;;;3.05;2.30;;;16.70;99.90;;;;;;4958657;29;20043;-96
2021/07/17 02:23:37;;;;;;;6.85;2.80;;;16.60;99.90;;;;;;4964763;29;20059;-96
2021/07/17 02:26:48;;;;;;;3.60;2.22;;;16.60;99.90;;;;;;4981140;28;20023;-96
2021/07/17 02:29:36;;;;;;;4.97;2.38;;;16.60;99.90;;;;;;4962698;29;20035;-96
2021/07/17 02:36:41;;;;;;;4.07;2.42;;;16.50;99.90;;;;;;4941097;29;20032;-96
2021/07/17 02:39:29;;;;;;;9.35;2.55;;;16.50;99.90;;;;;;4941762;29;20031;-96
2021/07/17 02:42:27;;;;;;;4.30;2.33;;;16.40;99.90;;;;;;4917191;29;20150;-96
2021/07/17 02:45:18;;;;;;;6.18;2.35;;;16.40;99.90;;;;;;4924472;29;20021;-96
2021/07/17 02:48:06;;;;;;;;;;;16.30;99.90;;;;;;4922239;29;20059;-96
2021/07/17 02:50:45;;;;;;;4.53;2.00;;;16.30;99.90;;;;;;4940409;29;19975;-95
2021/07/17 02:53:17;;;;;;;3.28;2.08;;;16.30;99.90;;;;;;4937100;29;20051;-96
2021/07/17 02:59:07;;;;;;;7.65;2.65;;;16.30;99.90;;;;;;4927153;29;20043;-96
2021/07/17 03:02:06;;;;;;;4.68;2.67;;;16.30;99.90;;;;;;4925797;29;20125;-96
2021/07/17 03:04:58;;;;;;;2.67;1.90;;;16.20;99.90;;;;;;4937726;29;20087;-96
2021/07/17 03:07:26;;;;;;;4.97;2.30;;;16.20;99.90;;;;;;4915975;29;20498;-96
2021/07/17 03:09:55;;;;;;;3.92;2.20;;;16.20;99.90;;;;;;4932341;29;20024;-94
2021/07/17 03:12:26;;;;;;;4.38;1.90;;;16.10;99.90;;;;;;4936600;29;20126;-95
2021/07/17 03:14:55;;;;;;;6.03;2.20;;;16.20;99.90;;;;;;4972748;29;20054;-96
2021/07/17 03:21:40;;;;;;;5.40;2.50;;;16.10;99.90;;;;;;4978566;29;20053;-96
2021/07/17 03:33:29;;;;;;;6.85;2.60;;;15.80;99.90;;;;;;5215683;23;20090;-96
2021/07/17 03:36:04;;;;;;;4.65;2.22;;;15.70;99.90;;;;;;4974429;28;20061;-96
2021/07/17 03:38:39;;;;;;;4.90;2.30;;;15.60;99.90;;;;;;4980261;28;20031;-96
2021/07/17 03:41:10;;;;;;;5.32;2.65;;;15.60;99.90;;;;;;4978674;28;20038;-96
2021/07/17 03:43:51;;;;;;;3.33;2.20;;;15.60;99.90;;;;;;4978240;28;20474;-96
2021/07/17 03:46:19;;;;;;;;;;;15.60;99.90;;;;;;4978570;28;20071;-96
2021/07/17 03:48:45;;;;;;;3.42;2.65;;;15.60;99.90;;;;;;4977243;28;19913;-95
2021/07/17 03:51:45;;;;;;;6.47;2.53;;;15.50;99.90;;;;;;4976177;28;20043;-96
2021/07/17 03:54:38;;;;;;;6.45;2.63;;;15.50;99.90;;;;;;4997046;28;20103;-95
2021/07/17 03:57:23;;;;;;;4.45;2.50;;;15.50;99.90;;;;;;4992266;28;20027;-95
2021/07/17 04:00:24;;;;;;;3.40;2.47;;;15.40;99.90;;;;;;4978187;28;20102;-96
2021/07/17 04:03:23;;;;;;;6.32;2.50;;;15.40;99.90;;;;;;4967666;28;20023;-95
2021/07/17 04:06:13;;;;;;;7.38;2.08;;;15.30;99.90;;;;;;4978462;28;20185;-95
2021/07/17 04:09:13;;;;;;;2.83;2.47;;;15.30;99.90;;;;;;4996938;28;20027;-96
2021/07/17 04:11:50;;;;;;;3.65;2.10;;;15.30;99.90;;;;;;4960144;29;20279;-96
2021/07/17 04:31:46;;;;;;;5.25;2.53;;;15.30;99.90;;;;;;4992420;28;20043;-96
2021/07/17 04:34:23;;;;;;;6.75;2.30;;;15.30;99.90;;;;;;4977411;28;20054;-96
2021/07/17 04:36:53;;;;;;;4.60;2.45;;;15.30;99.90;;;;;;4981501;28;20065;-95
2021/07/17 04:39:33;;;;;;;3.25;2.58;;;15.30;99.90;;;;;;4981124;28;20027;-96
2021/07/17 04:42:05;;;;;;;3.08;2.35;;;15.20;99.90;;;;;;4980995;28;20066;-95
2021/07/17 04:44:41;;;;;;;6.80;2.67;;;15.20;99.90;;;;;;4982639;28;20041;-96
2021/07/17 04:47:48;;;;;;;;;;;;;;;;;;;;;
2021/07/17 04:50:29;;;;;;;7.22;2.47;;;15.00;99.90;;;;;;4899128;29;20035;-96
2021/07/17 04:56:40;;;;;;;4.13;2.20;;;15.00;99.90;;;;;;4914656;29;20070;-96
2021/07/17 04:59:10;;;;;;;3.78;2.20;;;15.00;99.90;;;;;;4902716;29;20047;-96
2021/07/17 05:01:43;;;;;;;5.80;2.38;;;15.00;99.90;;;;;;4918151;29;20028;-96
2021/07/17 05:04:18;;;;;;;3.83;2.08;;;15.00;99.90;;;;;;4919377;29;20037;-96
2021/07/17 05:06:56;;;;;;;7.25;2.38;;;15.10;99.90;;;;;;4919565;29;20044;-96
2021/07/17 05:09:44;;;;;;;5.18;2.38;;;15.10;99.90;;;;;;4919045;29;20029;-96
2021/07/17 05:12:33;;;;;;;3.28;2.30;;;15.10;99.90;;;;;;4920378;29;20035;-96
2021/07/17 05:15:20;;;;;;;2.60;2.15;;;15.20;99.90;;;;;;4902709;29;20127;-96
2021/07/17 05:18:16;;;;;;;3.17;2.25;;;15.10;99.90;;;;;;4919452;29;20057;-96
2021/07/17 05:21:11;;;;;;;4.15;2.05;;;15.10;99.90;;;;;;4933865;28;20039;-96
2021/07/17 05:24:42;;;;;;;4.00;1.98;;;15.10;99.90;;;;;;4966400;28;20027;-96
2021/07/17 05:27:15;;;;;;;5.68;2.08;;;15.20;99.90;;;;;;4924577;29;20072;-96
2021/07/17 05:30:10;;;;;;;5.10;2.42;;;15.20;99.90;;;;;;4944329;29;20047;-96
2021/07/17 05:32:51;;;;;;;5.75;2.55;;;15.20;99.90;;;;;;4956102;29;20038;-96
2021/07/17 05:35:27;;;;;;;;;;;15.20;99.90;;;;;;4936742;29;20055;-96
2021/07/17 05:37:57;;;;;;;4.35;3.00;;;15.30;99.90;;;;;;4934353;29;19911;-96
2021/07/17 05:40:42;;;;;;;7.00;3.40;;;15.30;99.90;;;;;;4951369;29;20090;-96
2021/07/17 05:43:18;;;;;;;4.18;2.53;;;15.40;99.90;;;;;;4935536;29;20043;-96
2021/07/17 05:48:27;;;;;;;5.80;3.03;;;15.40;99.90;;;;;;4967940;23;20058;-96
2021/07/17 05:51:08;;;;;;;7.05;2.67;;;15.40;99.90;;;;;;4968790;28;20039;-96
2021/07/17 06:03:22;;;;;;;4.10;2.80;;;15.60;99.90;;;;;;5344572;23;20074;-95
2021/07/17 06:05:52;;;;;;;3.95;2.53;;;15.60;99.90;;;;;;4978947;28;20050;-95
2021/07/17 06:08:32;;;;;;;6.38;2.63;;;15.70;99.90;;;;;;4976812;28;20038;-95
2021/07/17 06:11:18;;;;;;;5.97;2.90;;;15.70;99.90;;;;;;4993649;28;20041;-96
2021/07/17 06:13:57;;;;;;;6.03;2.88;;;15.80;99.90;;;;;;4976212;28;20046;-95
2021/07/17 06:16:28;;;;;;;4.55;2.47;;;15.90;99.90;;;;;;4958634;28;20063;-95
2021/07/17 06:18:53;;;;;;;;;;;16.00;99.90;;;;;;4969838;28;20027;-94
2021/07/17 06:21:32;;;;;;;5.60;3.08;;;16.10;99.90;;;;;;4972537;28;19966;-95
2021/07/17 06:24:03;;;;;;;5.18;2.70;;;16.10;99.90;;;;;;4976976;28;20034;-95
2021/07/17 06:26:32;;;;;;;6.82;2.67;;;16.20;99.90;;;;;;4971000;28;20038;-95
2021/07/17 06:29:08;;;;;;;3.47;2.30;;;16.40;99.90;;;;;;4971914;28;20066;-95
2021/07/17 06:31:34;;;;;;;4.53;2.80;;;16.40;99.90;;;;;;4977832;28;20022;-96
2021/07/17 06:34:11;;;;;;;4.57;2.38;;;16.50;99.90;;;;;;4977781;28;20041;-95
2021/07/17 06:36:45;;;;;;;6.57;2.45;;;16.60;99.90;;;;;;4975411;28;20062;-96
2021/07/17 06:39:25;;;;;;;2.67;1.90;;;16.70;99.90;;;;;;4962285;28;20090;-96
2021/07/17 06:41:54;;;;;;;2.88;2.13;;;16.80;99.90;;;;;;4974152;28;20035;-96
2021/07/17 06:44:34;;;;;;;8.45;2.75;;;17.00;99.90;;;;;;4973715;28;20034;-96
2021/07/17 06:47:00;;;;;;;2.17;1.70;;;17.00;99.90;;;;;;4971905;28;20042;-96
2021/07/17 06:49:38;;;;;;;2.85;2.25;;;17.10;99.90;;;;;;4987470;28;20027;-95
2021/07/17 06:52:04;;;;;;;4.35;2.03;;;17.20;99.90;;;;;;4969691;28;20479;-95
2021/07/17 06:54:33;;;;;;;4.25;1.90;;;17.30;99.90;;;;;;4970590;28;20054;-95
2021/07/17 06:56:59;;;;;;;4.20;2.53;;;17.40;99.90;;;;;;4969859;28;20073;-96
2021/07/17 06:59:25;;;;;;;3.97;2.10;;;17.60;99.90;;;;;;4968343;28;20026;-96
2021/07/17 07:01:50;;;;;;;2.15;1.60;;;17.60;99.90;;;;;;4969906;28;20031;-96
2021/07/17 07:04:16;;;;;;;4.07;1.55;;;17.80;99.90;;;;;;4970840;28;20070;-95
2021/07/17 07:06:42;;;;;;;4.53;2.67;;;17.80;99.90;;;;;;4971318;28;20054;-96
2021/07/17 07:09:11;;;;;;;6.07;2.30;;;18.00;99.90;;;;;;4990203;28;20030;-95
2021/07/17 07:11:39;;;;;;;4.40;2.15;;;18.10;99.90;;;;;;4972676;28;20026;-96
2021/07/17 07:14:07;;;;;;;3.70;1.50;;;18.20;99.90;;;;;;4972250;28;20101;-96
2021/07/17 07:16:33;;;;;;;6.43;2.63;;;18.30;99.90;;;;;;4972474;28;20480;-96
2021/07/17 07:18:59;;;;;;;3.30;2.05;;;18.40;99.90;;;;;;4972180;28;20042;-96
2021/07/17 07:21:25;;;;;;;7.60;3.05;;;18.50;99.90;;;;;;4969868;28;20026;-95
2021/07/17 07:23:51;;;;;;;3.67;2.30;;;18.60;99.90;;;;;;4970544;28;20486;-95
2021/07/17 07:26:16;;;;;;;8.73;2.60;;;18.70;99.90;;;;;;4968590;28;20057;-95
2021/07/17 07:28:42;;;;;;;5.53;2.10;;;18.80;99.90;;;;;;4962411;28;20499;-96
2021/07/17 07:31:22;;;;;;;5.93;1.85;;;19.00;99.90;;;;;;4969257;28;20137;-95
2021/07/17 07:33:48;;;;;;;3.27;1.80;;;19.10;99.90;;;;;;4972651;28;20023;-96
2021/07/17 07:36:18;;;;;;;4.68;2.00;;;19.20;99.90;;;;;;4971117;28;20644;-96
2021/07/17 07:38:48;;;;;;;5.90;2.30;;;19.30;99.90;;;;;;4989702;28;20547;-96
2021/07/17 07:41:25;;;;;;;5.05;2.17;;;19.40;99.90;;;;;;4973706;28;20035;-95
2021/07/17 07:43:51;;;;;;;4.70;2.08;;;19.60;99.90;;;;;;4963071;28;20054;-96
2021/07/17 07:46:17;;;;;;;4.95;2.20;;;19.70;99.90;;;;;;4961452;28;20031;-96
2021/07/17 07:48:52;;;;;;;4.15;2.03;;;19.90;99.90;;;;;;4946492;28;20042;-95
2021/07/17 07:51:18;;;;;;;7.60;2.47;;;20.00;99.90;;;;;;4963575;28;20294;-96
2021/07/17 07:53:44;;;;;;;6.60;2.10;;;20.10;99.90;;;;;;4965145;28;20180;-94
2021/07/17 07:56:21;;;;;;;5.18;1.80;;;20.20;99.90;;;;;;4967277;28;20026;-96
2021/07/17 07:58:49;;;;;;;3.50;2.47;;;20.40;99.90;;;;;;4962573;28;20019;-95
2021/07/17 08:01:15;;;;;;;5.28;1.83;;;20.50;99.90;;;;;;4967291;28;20030;-96
2021/07/17 08:03:47;;;;;;;6.18;2.50;;;20.60;99.90;;;;;;4966732;29;20061;-96
2021/07/17 08:06:13;;;;;;;4.03;1.73;;;20.80;99.90;;;;;;4967072;29;20031;-96
2021/07/17 08:08:41;;;;;;;4.90;2.22;;;20.90;99.90;;;;;;4962046;29;20040;-96
2021/07/17 08:11:07;;;;;;;3.40;1.80;;;21.10;99.90;;;;;;4958436;29;20114;-95
2021/07/17 08:13:33;;;;;;;5.28;1.85;;;21.20;99.90;;;;;;4962904;29;20043;-95
2021/07/17 08:16:10;;;;;;;4.78;2.53;;;21.40;99.90;;;;;;4978554;28;20011;-96
2021/07/17 08:18:38;;;;;;;7.40;1.95;;;21.60;99.90;;;;;;4970681;28;20047;-96
2021/07/17 08:21:09;;;;;;;6.72;1.67;;;21.70;99.90;;;;;;4970972;28;20074;-96
2021/07/17 08:23:47;;;;;;;9.82;1.83;;;21.90;99.90;;;;;;4971132;29;20027;-96
2021/07/17 08:26:13;;;;;;;3.85;2.05;;;22.10;99.90;;;;;;4971695;29;20027;-96
2021/07/17 08:28:39;;;;;;;4.28;1.55;;;22.20;99.90;;;;;;4969386;28;20031;-96
2021/07/17 08:31:08;;;;;;;3.38;1.60;;;22.40;99.90;;;;;;4967669;29;20090;-96
2021/07/17 08:33:47;;;;;;;6.88;1.92;;;22.60;99.90;;;;;;4966468;29;20058;-96
2021/07/17 08:36:17;;;;;;;4.28;1.83;;;22.80;99.90;;;;;;4968664;28;20027;-96
2021/07/17 08:38:44;;;;;;;3.33;1.60;;;23.00;99.90;;;;;;4962986;29;20027;-96
2021/07/17 08:44:15;;;;;;;3.10;1.40;;;23.30;99.90;;;;;;4960900;29;20046;-96
2021/07/17 08:46:41;;;;;;;3.30;1.50;;;23.50;99.90;;;;;;4959731;28;20046;-96
2021/07/17 08:49:10;;;;;;;3.08;1.55;;;23.70;98.90;;;;;;4962936;28;20028;-96
2021/07/17 08:52:03;;;;;;;3.50;1.55;;;23.80;97.70;;;;;;4961629;28;20058;-96
2021/07/17 08:54:30;;;;;;;5.57;1.88;;;24.00;96.70;;;;;;4958863;28;20034;-96
2021/07/17 08:56:57;;;;;;;3.75;1.23;;;24.10;96.50;;;;;;4945497;29;20039;-96
2021/07/17 08:59:41;;;;;;;2.65;1.40;;;24.30;95.90;;;;;;4944226;29;20035;-96
2021/07/17 09:02:10;;;;;;;5.55;1.75;;;24.40;95.40;;;;;;4960621;29;20035;-95
2021/07/17 09:05:01;;;;;;;4.25;1.40;;;24.60;95.00;;;;;;4960077;28;20107;-96
2021/07/17 09:07:30;;;;;;;6.22;1.30;;;24.80;94.10;;;;;;4959914;28;20035;-95
2021/07/17 09:10:39;;;;;;;5.82;1.95;;;25.00;93.50;;;;;;4958721;29;20027;-96
2021/07/17 09:13:18;;;;;;;4.68;1.40;;;25.20;92.60;;;;;;4959878;28;20470;-96
2021/07/17 09:15:50;;;;;;;5.82;1.35;;;25.30;91.80;;;;;;4964304;28;20070;-96
2021/07/17 09:18:51;;;;;;;3.05;1.30;;;25.50;90.60;;;;;;4961194;28;20085;-95
2021/07/17 09:21:22;;;;;;;4.88;1.30;;;25.70;89.80;;;;;;4959362;28;20028;-96
2021/07/17 09:24:18;;;;;;;3.15;1.15;;;25.80;87.40;;;;;;4959631;28;20170;-96
2021/07/17 09:27:02;;;;;;;2.75;1.42;;;26.00;85.40;;;;;;4945922;29;20123;-96
2021/07/17 09:29:42;;;;;;;5.53;1.27;;;26.20;83.80;;;;;;4959876;28;20031;-96
2021/07/17 09:32:17;;;;;;;1.73;1.08;;;26.30;82.80;;;;;;4959309;28;20020;-96
2021/07/17 09:34:48;;;;;;;3.03;1.23;;;26.40;81.10;;;;;;4962528;28;20035;-96
2021/07/17 09:37:54;;;;;;;2.20;0.93;;;26.50;79.80;;;;;;4957313;29;20031;-96
2021/07/17 09:40:28;;;;;;;2.85;0.93;;;26.60;78.10;;;;;;4953230;29;20035;-96
2021/07/17 09:42:56;;;;;;;2.10;1.02;;;26.80;77.40;;;;;;4959083;29;20477;-96
2021/07/17 09:45:38;;;;;;;1.35;0.75;;;26.90;76.80;;;;;;4959508;28;20024;-96
2021/07/17 09:48:26;;;;;;;1.23;0.75;;;27.10;75.40;;;;;;4961235;29;20039;-96
2021/07/17 09:50:53;;;;;;;2.25;0.70;;;27.30;73.90;;;;;;4957421;29;20035;-96
2021/07/17 09:53:46;;;;;;;3.42;1.67;;;27.50;72.90;;;;;;4956130;29;20039;-96
2021/07/17 09:56:24;;;;;;;4.45;1.08;;;27.70;72.10;;;;;;4956258;29;20214;-95
2021/07/17 09:58:51;;;;;;;1.67;0.90;;;27.80;71.40;;;;;;4957532;28;20054;-96
2021/07/17 10:01:26;;;;;;;2.22;0.93;;;27.90;71.50;;;;;;4957928;28;20031;-96
2021/07/17 10:04:00;;;;;;;3.25;0.90;;;28.00;70.60;;;;;;4960354;28;20051;-96
2021/07/17 10:06:55;;;;;;;1.27;0.70;;;28.10;69.10;;;;;;4960000;28;20505;-96
2021/07/17 10:09:33;;;;;;;2.97;0.90;;;28.30;67.90;;;;;;4959146;29;20024;-96
2021/07/17 10:12:07;;;;;;;4.65;0.93;;;28.40;67.20;;;;;;4958961;28;20127;-96
2021/07/17 10:14:37;;;;;;;1.13;0.75;;;28.50;67.00;;;;;;4958526;28;20023;-95
2021/07/17 10:17:10;;;;;;;1.58;0.88;;;28.60;66.90;;;;;;4960818;28;20097;-96
2021/07/17 10:19:40;;;;;;;3.03;0.85;;;28.70;66.20;;;;;;4959020;29;20043;-96
2021/07/17 10:22:07;;;;;;;2.00;0.90;;;28.80;65.10;;;;;;4959114;29;20400;-96
2021/07/17 10:24:34;;;;;;;1.73;0.60;;;29.00;64.60;;;;;;4958492;28;20031;-95
2021/07/17 10:27:00;;;;;;;1.70;0.77;;;29.10;63.80;;;;;;4958356;29;20049;-95
2021/07/17 10:29:27;;;;;;;1.73;0.77;;;29.30;63.60;;;;;;4960994;28;20058;-96
2021/07/17 10:31:55;;;;;;;3.50;1.10;;;29.40;63.10;;;;;;4958938;28;20032;-96
2021/07/17 10:34:21;;;;;;;2.63;0.77;;;29.50;62.70;;;;;;4960158;29;20027;-95
2021/07/17 10:36:58;;;;;;;1.58;0.70;;;29.70;62.60;;;;;;4959445;28;20039;-96
2021/07/17 10:39:57;;;;;;;0.95;0.70;;;29.80;62.50;;;;;;4963906;28;20034;-96
2021/07/17 10:42:26;;;;;;;2.88;0.70;;;29.90;62.00;;;;;;4962804;29;20058;-96
2021/07/17 10:45:05;;;;;;;1.90;0.60;;;30.10;61.10;;;;;;4973173;29;20038;-96
2021/07/17 10:47:41;;;;;;;1.27;0.82;;;30.10;60.30;;;;;;4976714;28;20082;-96
2021/07/17 10:50:33;;;;;;;1.50;0.70;;;30.10;60.00;;;;;;4972985;29;20059;-96
2021/07/17 10:53:02;;;;;;;1.75;0.75;;;30.20;60.20;;;;;;4972817;28;20082;-96
2021/07/17 10:55:55;;;;;;;2.00;0.60;;;30.30;59.90;;;;;;4971210;29;20031;-96
2021/07/17 10:58:24;;;;;;;2.00;0.80;;;30.50;59.60;;;;;;4970926;29;20279;-96
2021/07/17 11:03:59;;;;;;;0.98;0.70;;;30.80;59.20;;;;;;4981592;28;20135;-95
2021/07/17 11:06:35;;;;;;;1.50;0.80;;;30.80;58.50;;;;;;4967558;28;20031;-96
2021/07/17 11:09:27;;;;;;;1.00;0.90;;;30.80;58.30;;;;;;4969098;28;20049;-96
2021/07/17 11:12:18;;;;;;;0.82;0.70;;;30.90;57.90;;;;;;4968747;28;20027;-96
2021/07/17 11:14:44;;;;;;;2.40;1.02;;;31.00;58.10;;;;;;4972244;28;20023;-95
2021/07/17 11:17:37;;;;;;;2.20;0.80;;;31.10;58.00;;;;;;4970881;28;20100;-95
2021/07/17 11:20:26;;;;;;;1.95;1.00;;;31.10;58.40;;;;;;4967848;28;20039;-95
2021/07/17 11:23:12;;;;;;;1.67;0.90;;;31.10;57.50;;;;;;4973643;28;20023;-96
2021/07/17 11:25:59;;;;;;;0.73;0.70;;;31.10;57.70;;;;;;4992927;28;20054;-96
2021/07/17 11:29:02;;;;;;;2.72;0.80;;;31.00;57.20;;;;;;4977258;28;20121;-96
2021/07/17 11:31:41;;;;;;;5.05;0.80;;;31.10;57.20;;;;;;4974220;28;20030;-95
2021/07/17 11:34:35;;;;;;;4.95;0.85;;;31.30;57.40;;;;;;4974468;28;20039;-96
2021/07/17 11:37:13;;;;;;;0.82;0.70;;;31.60;57.10;;;;;;4971774;28;20030;-96
2021/07/17 11:39:49;;;;;;;1.88;0.90;;;31.80;56.90;;;;;;4971666;28;20029;-95
2021/07/17 11:42:36;;;;;;;;;;;;;;;;;;;;;
2021/07/17 11:45:22;;;;;;;1.17;0.45;;;32.00;56.20;;;;;;4971370;28;20099;-96
2021/07/17 11:48:07;;;;;;;4.13;1.00;;;32.10;56.00;;;;;;4990042;28;20045;-96
2021/07/17 11:50:50;;;;;;;1.77;0.93;;;32.30;55.90;;;;;;4968692;28;20098;-95
2021/07/17 11:53:19;;;;;;;0.98;0.70;;;32.40;55.70;;;;;;4974125;28;20045;-96
2021/07/17 11:55:58;;;;;;;0.97;0.60;;;32.50;55.20;;;;;;4983049;28;20090;-96
2021/07/17 11:58:24;;;;;;;1.58;0.63;;;32.60;54.90;;;;;;4983215;28;20277;-95
2021/07/17 12:01:07;;;;;;;2.67;0.80;;;32.60;54.90;;;;;;4982949;28;20050;-96
2021/07/17 12:03:35;;;;;;;2.83;0.90;;;32.60;54.80;;;;;;4979503;28;20099;-95
2021/07/17 12:06:04;;;;;;;4.22;1.02;;;32.70;54.90;;;;;;4979885;28;20031;-95
2021/07/17 12:08:30;;;;;;;1.60;0.77;;;32.90;54.70;;;;;;4964087;28;20031;-96
2021/07/17 12:10:57;;;;;;;1.25;0.63;;;33.00;54.00;;;;;;4979582;28;20050;-95
2021/07/17 12:13:23;;;;;;;1.02;0.70;;;33.00;53.70;;;;;;4978879;28;20007;-94
2021/07/17 12:15:49;;;;;;;2.17;0.73;;;33.00;53.40;;;;;;4978605;28;20045;-95
2021/07/17 12:18:17;;;;;;;1.10;0.98;;;33.00;53.50;;;;;;4976886;29;20024;-94
2021/07/17 12:20:48;;;;;;;1.08;0.63;;;33.00;53.30;;;;;;4977737;28;20026;-94
2021/07/17 12:23:29;;;;;;;1.42;0.95;;;33.10;53.20;;;;;;4958628;29;20031;-94
2021/07/17 12:26:04;;;;;;;2.67;0.85;;;32.90;53.00;;;;;;4958573;28;20027;-94
2021/07/17 12:28:35;;;;;;;1.65;1.10;;;32.80;53.10;;;;;;4959716;28;20031;-95
2021/07/17 12:31:07;;;;;;;2.65;1.27;;;32.80;53.30;;;;;;4961922;28;20027;-95
2021/07/17 12:33:35;;;;;;;5.65;1.10;;;32.90;53.40;;;;;;4957631;28;20055;-94
2021/07/17 12:36:10;;;;;;;1.20;0.90;;;33.00;53.50;;;;;;4956496;28;20115;-95
2021/07/17 12:38:48;;;;;;;3.08;1.50;;;32.80;53.50;;;;;;4958697;29;20118;-95
2021/07/17 12:41:19;;;;;;;2.70;1.40;;;32.80;54.30;;;;;;4955959;29;20117;-94
2021/07/17 12:43:53;;;;;;;2.78;1.52;;;32.60;55.20;;;;;;4956309;28;20038;-95
2021/07/17 12:46:26;;;;;;;1.38;1.20;;;32.40;55.40;;;;;;4956011;28;20481;-94
2021/07/17 12:49:00;;;;;;;2.17;1.35;;;32.40;55.70;;;;;;4956789;28;20433;-94
2021/07/17 12:51:40;;;;;;;4.80;1.20;;;32.60;55.30;;;;;;4956230;28;20118;-94
2021/07/17 12:54:11;;;;;;;2.47;1.27;;;32.70;55.60;;;;;;4958849;28;20031;-94
2021/07/17 12:56:53;;;;;;;2.28;1.30;;;32.90;55.50;;;;;;4955806;28;20118;-95
2021/07/17 12:59:39;;;;;;;3.35;1.38;;;33.00;54.80;;;;;;4957131;28;20039;-96
2021/07/17 13:02:17;;;;;;;5.07;1.60;;;33.10;54.90;;;;;;4959740;28;20469;-95
2021/07/17 13:04:51;;;;;;;3.05;1.48;;;33.30;54.90;;;;;;4960840;28;20073;-95
2021/07/17 13:07:31;;;;;;;5.82;1.45;;;33.50;54.60;;;;;;4960115;28;20129;-95
2021/07/17 13:09:57;;;;;;;5.93;1.75;;;33.70;54.70;;;;;;4958954;28;20019;-95
2021/07/17 13:12:28;;;;;;;2.42;1.63;;;33.80;54.90;;;;;;4962053;28;20031;-96
2021/07/17 13:14:55;;;;;;;4.53;1.50;;;33.80;54.20;;;;;;4959018;28;20069;-95
2021/07/17 13:17:22;;;;;;;3.45;1.70;;;33.90;54.20;;;;;;4958108;28;20035;-95
2021/07/17 13:20:01;;;;;;;5.45;1.60;;;34.10;54.40;;;;;;4958524;28;20046;-94
2021/07/17 13:23:00;;;;;;;3.23;1.63;;;34.30;54.40;;;;;;4958653;28;20031;-93
2021/07/17 13:25:27;;;;;;;6.07;2.10;;;34.30;54.20;;;;;;4959013;28;20547;-95
2021/07/17 13:28:13;;;;;;;4.15;1.70;;;34.20;54.30;;;;;;4958851;28;20030;-94
2021/07/17 13:30:41;;;;;;;2.35;1.90;;;33.90;54.80;;;;;;4958852;28;20031;-94
2021/07/17 13:33:09;;;;;;;4.10;1.90;;;33.60;54.80;;;;;;4958945;28;20027;-95
2021/07/17 13:35:44;;;;;;;3.90;1.85;;;33.50;55.10;;;;;;4958296;28;20023;-94
2021/07/17 13:38:12;;;;;;;2.28;1.52;;;33.40;55.30;;;;;;4961187;28;20039;-94
2021/07/17 13:40:50;;;;;;;3.08;1.88;;;33.50;55.40;;;;;;4962080;28;20018;-94
2021/07/17 13:43:18;;;;;;;2.58;1.60;;;33.50;55.40;;;;;;4962492;28;20044;-95
2021/07/17 13:45:45;;;;;;;5.38;1.85;;;33.50;55.70;;;;;;4962484;28;20113;-95
2021/07/17 13:48:12;;;;;;;6.47;2.40;;;33.60;55.70;;;;;;4962190;28;20027;-95
2021/07/17 13:50:43;;;;;;;3.85;1.83;;;33.70;55.50;;;;;;4962534;28;20543;-95
2021/07/17 13:53:13;;;;;;;2.67;1.80;;;33.80;55.20;;;;;;4961889;28;20473;-94
2021/07/17 13:55:44;;;;;;;2.78;1.80;;;33.80;54.90;;;;;;4962400;28;20035;-94
2021/07/17 13:58:17;;;;;;;5.13;2.10;;;34.00;54.50;;;;;;4962118;28;20089;-94
2021/07/17 14:00:52;;;;;;;2.65;1.92;;;34.30;54.30;;;;;;4962115;28;20038;-95
2021/07/17 14:03:20;;;;;;;2.78;1.70;;;34.50;53.90;;;;;;4962208;28;20047;-94
2021/07/17 14:05:56;;;;;;;5.97;2.50;;;34.60;53.20;;;;;;4962138;28;20035;-94
2021/07/17 14:08:22;;;;;;;3.47;2.17;;;34.50;52.60;;;;;;4962364;28;20031;-95
2021/07/17 14:10:49;;;;;;;4.97;2.05;;;34.30;52.90;;;;;;4963334;28;20041;-96
2021/07/17 14:13:15;;;;;;;4.10;2.33;;;34.20;53.20;;;;;;4962881;28;20027;-95
2021/07/17 14:15:41;;;;;;;5.72;2.15;;;34.20;53.40;;;;;;4962319;28;20030;-96
2021/07/17 14:18:08;;;;;;;3.38;2.28;;;34.40;53.50;;;;;;4946051;28;20137;-96
2021/07/17 14:20:34;;;;;;;3.42;2.28;;;34.50;53.00;;;;;;4961684;28;20255;-94
2021/07/17 14:23:01;;;;;;;3.60;2.08;;;34.80;52.60;;;;;;4962161;28;20342;-95
2021/07/17 14:25:31;;;;;;;6.13;2.22;;;34.90;52.00;;;;;;4961994;28;20037;-96
2021/07/17 14:27:58;;;;;;;4.05;2.03;;;34.80;51.50;;;;;;4961518;28;20098;-96
2021/07/17 14:30:23;;;;;;;4.53;1.73;;;34.80;51.50;;;;;;4961575;28;20511;-95
2021/07/17 14:32:50;;;;;;;3.92;2.05;;;34.70;51.40;;;;;;4960538;28;20043;-94